createdAt,value
2023-01-29T00:02:00.708Z,80.20
2023-01-29T00:04:05.969Z,81.10
2023-01-29T00:06:12.895Z,80.80
2023-01-29T00:08:20.613Z,80.50
2023-01-29T00:10:26.088Z,81.00
2023-01-29T00:12:30.955Z,82.20
2023-01-29T00:14:36.158Z,82.10
2023-01-29T00:16:41.098Z,82.30
2023-01-29T00:18:46.923Z,82.00
2023-01-29T00:20:51.936Z,81.70
2023-01-29T00:22:57.050Z,82.90
2023-01-29T00:25:04.536Z,82.30
2023-01-29T00:27:10.178Z,81.00
2023-01-29T00:29:15.084Z,81.00
2023-01-29T00:31:23.639Z,80.90
2023-01-29T00:33:28.963Z,80.30
2023-01-29T00:35:35.188Z,79.90
2023-01-29T00:37:40.433Z,80.00
2023-01-29T00:39:48.320Z,80.90
2023-01-29T00:42:08.779Z,81.00
2023-01-29T00:44:26.964Z,80.30
2023-01-29T00:46:31.879Z,82.60
2023-01-29T00:48:37.266Z,82.80
2023-01-29T00:50:42.615Z,82.10
2023-01-29T00:52:49.674Z,81.80
2023-01-29T00:54:56.233Z,81.70
2023-01-29T00:57:04.726Z,81.80
2023-01-29T00:59:10.100Z,82.00
2023-01-29T01:01:15.439Z,82.10
2023-01-29T01:03:18.292Z,82.40
2023-01-29T01:05:25.969Z,82.10
2023-01-29T01:07:30.854Z,81.30
2023-01-29T01:09:50.832Z,82.00
2023-01-29T01:11:55.915Z,83.00
2023-01-29T01:14:03.428Z,82.50
2023-01-29T01:16:13.472Z,82.60
2023-01-29T01:18:20.608Z,81.70
2023-01-29T01:20:25.880Z,82.60
2023-01-29T01:22:31.268Z,81.80
2023-01-29T01:24:36.231Z,81.70
2023-01-29T01:26:41.342Z,81.60
2023-01-29T01:28:46.862Z,83.80
2023-01-29T01:30:54.374Z,84.00
2023-01-29T01:32:59.390Z,82.80
2023-01-29T01:35:04.494Z,82.30
2023-01-29T01:37:09.884Z,82.20
2023-01-29T01:39:14.757Z,82.10
2023-01-29T01:41:22.944Z,84.00
2023-01-29T01:43:27.837Z,83.00
2023-01-29T01:45:35.751Z,82.30
2023-01-29T01:47:48.866Z,82.30
2023-01-29T01:49:55.311Z,82.10
2023-01-29T01:52:01.545Z,81.90
2023-01-29T01:54:11.445Z,82.70
2023-01-29T01:56:24.820Z,83.50
2023-01-29T01:58:37.357Z,83.50
2023-01-29T02:00:44.252Z,84.40
2023-01-29T02:03:05.725Z,85.20
2023-01-29T02:05:28.372Z,84.60
2023-01-29T02:07:47.721Z,84.50
2023-01-29T02:10:00.250Z,84.70
2023-01-29T02:12:09.620Z,84.80
2023-01-29T02:14:15.557Z,85.90
2023-01-29T02:16:20.866Z,84.80
2023-01-29T02:18:29.052Z,85.60
2023-01-29T02:20:35.084Z,85.30
2023-01-29T02:23:29.951Z,85.40
2023-01-29T02:26:02.073Z,85.90
2023-01-29T02:28:28.691Z,86.70
2023-01-29T02:30:40.941Z,86.60
2023-01-29T02:32:58.569Z,86.70
2023-01-29T02:35:32.103Z,86.60
2023-01-29T02:37:43.060Z,86.90
2023-01-29T02:39:59.690Z,86.70
2023-01-29T02:42:14.377Z,86.70
2023-01-29T02:44:32.831Z,86.90
2023-01-29T02:46:43.180Z,87.10
2023-01-29T02:49:04.796Z,87.00
2023-01-29T02:51:15.966Z,87.00
2023-01-29T02:53:29.252Z,86.90
2023-01-29T02:55:41.216Z,86.80
2023-01-29T02:57:49.894Z,86.80
2023-01-29T03:00:03.315Z,87.00
2023-01-29T03:02:13.514Z,86.90
2023-01-29T03:04:33.971Z,87.40
2023-01-29T03:06:45.658Z,87.90
2023-01-29T03:08:56.864Z,88.20
2023-01-29T03:11:08.065Z,88.20
2023-01-29T03:13:21.153Z,88.60
2023-01-29T03:15:38.707Z,88.80
2023-01-29T03:18:05.274Z,89.00
2023-01-29T03:20:16.548Z,88.60
2023-01-29T03:22:24.372Z,89.00
2023-01-29T03:24:51.200Z,88.80
2023-01-29T03:27:17.067Z,88.70
2023-01-29T03:29:36.234Z,89.00
2023-01-29T03:31:56.608Z,89.30
2023-01-29T03:34:08.088Z,88.90
2023-01-29T03:36:19.754Z,89.50
2023-01-29T03:38:29.907Z,89.10
2023-01-29T03:40:46.953Z,89.30
2023-01-29T03:43:02.840Z,89.50
2023-01-29T03:45:17.792Z,89.70
2023-01-29T03:47:44.331Z,89.50
2023-01-29T03:50:02.211Z,89.30
2023-01-29T03:52:18.981Z,89.30
2023-01-29T03:54:32.056Z,89.40
2023-01-29T03:56:52.963Z,89.70
2023-01-29T03:59:03.877Z,90.00
2023-01-29T04:01:34.657Z,90.00
2023-01-29T04:03:50.894Z,90.20
2023-01-29T04:06:09.984Z,90.50
2023-01-29T04:08:27.583Z,90.60
2023-01-29T04:10:36.228Z,90.80
2023-01-29T04:12:50.458Z,90.30
2023-01-29T04:14:57.235Z,90.60
2023-01-29T04:17:10.656Z,90.70
2023-01-29T04:19:36.487Z,91.00
2023-01-29T04:21:42.136Z,91.00
2023-01-29T04:23:47.752Z,91.00
2023-01-29T04:26:17.562Z,91.00
2023-01-29T04:28:29.724Z,91.00
2023-01-29T04:30:49.388Z,91.00
2023-01-29T04:33:09.146Z,91.20
2023-01-29T04:35:33.595Z,90.90
2023-01-29T04:37:47.493Z,90.40
2023-01-29T04:39:57.983Z,90.80
2023-01-29T04:42:15.264Z,90.40
2023-01-29T04:44:27.099Z,89.80
2023-01-29T04:46:38.624Z,89.70
2023-01-29T04:48:59.716Z,89.80
2023-01-29T04:51:15.586Z,90.20
2023-01-29T04:53:28.020Z,89.70
2023-01-29T04:55:41.355Z,89.50
2023-01-29T04:57:55.023Z,89.80
2023-01-29T05:00:05.438Z,89.60
2023-01-29T05:02:12.752Z,89.20
2023-01-29T05:04:20.904Z,89.50
2023-01-29T05:06:29.329Z,89.30
2023-01-29T05:08:35.762Z,88.90
2023-01-29T05:10:42.452Z,89.00
2023-01-29T05:12:54.151Z,88.80
2023-01-29T05:15:05.419Z,88.70
2023-01-29T05:17:17.719Z,89.00
2023-01-29T05:19:22.621Z,89.30
2023-01-29T05:21:30.690Z,89.40
2023-01-29T05:23:35.547Z,89.30
2023-01-29T05:25:40.781Z,89.00
2023-01-29T05:27:58.174Z,89.20
2023-01-29T05:30:03.029Z,89.50
2023-01-29T05:32:08.348Z,89.40
2023-01-29T05:34:13.217Z,89.40
2023-01-29T05:36:18.200Z,89.40
2023-01-29T05:38:26.189Z,88.80
2023-01-29T05:40:31.096Z,88.90
2023-01-29T05:42:36.212Z,88.60
2023-01-29T05:44:41.415Z,89.30
2023-01-29T05:46:46.382Z,89.20
2023-01-29T05:48:51.455Z,88.80
2023-01-29T05:50:56.472Z,89.20
2023-01-29T05:53:02.248Z,89.60
2023-01-29T05:55:11.832Z,89.10
2023-01-29T05:57:17.874Z,89.20
2023-01-29T05:59:23.409Z,89.40
2023-01-29T06:01:29.405Z,88.80
2023-01-29T06:03:34.310Z,89.40
2023-01-29T06:05:41.380Z,89.40
2023-01-29T06:07:47.745Z,89.10
2023-01-29T06:09:52.911Z,88.80
2023-01-29T06:12:01.050Z,89.20
2023-01-29T06:14:05.956Z,89.10
2023-01-29T06:16:14.019Z,89.10
2023-01-29T06:18:18.935Z,88.90
2023-01-29T06:20:24.503Z,89.30
2023-01-29T06:22:30.815Z,89.50
2023-01-29T06:24:35.757Z,89.10
2023-01-29T06:26:40.623Z,88.90
2023-01-29T06:28:51.487Z,89.00
2023-01-29T06:31:08.334Z,89.50
2023-01-29T06:33:21.797Z,90.20
2023-01-29T06:35:26.807Z,90.20
2023-01-29T06:37:32.107Z,90.20
2023-01-29T06:39:37.521Z,90.80
2023-01-29T06:41:42.775Z,90.70
2023-01-29T06:43:51.522Z,91.10
2023-01-29T06:45:59.501Z,91.10
2023-01-29T06:48:05.197Z,91.20
2023-01-29T06:50:10.781Z,91.10
2023-01-29T06:52:16.096Z,90.80
2023-01-29T06:54:20.983Z,91.20
2023-01-29T06:56:27.197Z,91.00
2023-01-29T06:58:32.187Z,90.80
2023-01-29T07:00:40.680Z,90.60
2023-01-29T07:02:45.557Z,91.10
2023-01-29T07:04:50.753Z,91.60
2023-01-29T07:06:55.996Z,91.60
2023-01-29T07:09:02.305Z,91.80
2023-01-29T07:11:09.293Z,91.90
2023-01-29T07:13:14.343Z,91.60
2023-01-29T07:15:22.200Z,91.80
2023-01-29T07:17:29.681Z,91.90
2023-01-29T07:19:34.769Z,92.00
2023-01-29T07:21:40.703Z,92.10
2023-01-29T07:23:45.619Z,92.00
2023-01-29T07:25:52.148Z,92.20
2023-01-29T07:27:58.390Z,91.80
2023-01-29T07:30:04.099Z,91.90
2023-01-29T07:32:09.865Z,91.90
2023-01-29T07:34:17.545Z,91.50
2023-01-29T07:36:24.144Z,91.50
2023-01-29T07:38:29.872Z,91.90
2023-01-29T07:40:34.848Z,91.90
2023-01-29T07:42:42.281Z,92.00
2023-01-29T07:44:48.434Z,92.10
2023-01-29T07:46:53.275Z,91.50
2023-01-29T07:48:58.149Z,91.40
2023-01-29T07:51:05.611Z,91.40
2023-01-29T07:53:10.556Z,91.40
2023-01-29T07:55:15.484Z,91.80
2023-01-29T07:57:20.466Z,91.20
2023-01-29T07:59:25.351Z,90.90
2023-01-29T08:01:30.949Z,91.20
2023-01-29T08:03:35.945Z,90.90
2023-01-29T08:05:41.931Z,90.40
2023-01-29T08:08:05.237Z,90.20
2023-01-29T08:10:14.014Z,90.00
2023-01-29T08:12:19.460Z,90.80
2023-01-29T08:14:24.901Z,89.70
2023-01-29T08:16:30.233Z,89.80
2023-01-29T08:18:35.900Z,88.90
2023-01-29T08:20:41.191Z,89.40
2023-01-29T08:22:49.407Z,88.90
2023-01-29T08:25:06.296Z,89.10
2023-01-29T08:27:12.945Z,89.10
2023-01-29T08:29:18.916Z,88.60
2023-01-29T08:31:24.106Z,87.40
2023-01-29T08:33:38.785Z,87.70
2023-01-29T08:35:44.252Z,88.10
2023-01-29T08:37:59.617Z,87.80
2023-01-29T08:40:05.353Z,87.80
2023-01-29T08:42:10.559Z,88.00
2023-01-29T08:44:15.579Z,86.90
2023-01-29T08:46:21.002Z,86.30
2023-01-29T08:48:26.423Z,87.20
2023-01-29T08:50:33.246Z,86.80
2023-01-29T08:52:38.118Z,87.60
2023-01-29T08:54:45.575Z,87.40
2023-01-29T08:56:50.473Z,86.40
2023-01-29T08:58:57.302Z,86.70
2023-01-29T09:01:13.454Z,87.20
2023-01-29T09:03:18.628Z,87.80
2023-01-29T09:05:24.004Z,86.90
2023-01-29T09:07:28.886Z,86.20
2023-01-29T09:09:33.724Z,86.60
2023-01-29T09:11:41.540Z,85.10
2023-01-29T09:13:46.487Z,84.70
2023-01-29T09:15:51.787Z,83.30
2023-01-29T09:17:57.414Z,83.10
2023-01-29T09:20:02.291Z,84.40
2023-01-29T09:22:07.575Z,83.70
2023-01-29T09:24:12.487Z,83.40
2023-01-29T09:26:17.392Z,83.60
2023-01-29T09:28:25.081Z,83.80
2023-01-29T09:30:30.082Z,84.10
2023-01-29T09:32:52.526Z,82.90
2023-01-29T09:34:57.849Z,82.00
2023-01-29T09:37:03.124Z,82.20
2023-01-29T09:39:07.995Z,82.40
2023-01-29T09:41:34.568Z,83.00
2023-01-29T09:43:51.338Z,81.60
2023-01-29T09:46:02.934Z,82.00
2023-01-29T09:48:14.193Z,81.00
2023-01-29T09:50:24.580Z,83.40
2023-01-29T09:52:32.829Z,81.50
2023-01-29T09:54:52.321Z,82.00
2023-01-29T09:56:59.658Z,81.70
2023-01-29T09:59:07.157Z,82.30
2023-01-29T10:01:20.404Z,82.00
2023-01-29T10:03:52.561Z,80.30
2023-01-29T10:06:17.824Z,81.10
2023-01-29T10:09:02.789Z,81.80
2023-01-29T10:11:20.914Z,81.10
2023-01-29T10:13:43.106Z,79.40
2023-01-29T10:16:11.629Z,80.10
2023-01-29T10:19:02.380Z,80.20
2023-01-29T10:21:25.915Z,79.10
2023-01-29T10:23:35.063Z,79.20
2023-01-29T10:25:45.143Z,79.10
2023-01-29T10:27:54.320Z,78.30
2023-01-29T10:29:59.740Z,79.60
2023-01-29T10:32:07.972Z,79.70
2023-01-29T10:34:19.442Z,79.40
2023-01-29T10:36:29.184Z,79.20
2023-01-29T10:38:47.263Z,78.60
2023-01-29T10:41:02.951Z,78.80
2023-01-29T10:43:14.864Z,79.40
2023-01-29T10:45:32.468Z,77.60
2023-01-29T10:48:08.528Z,78.70
2023-01-29T10:50:32.785Z,78.80
2023-01-29T10:52:53.550Z,78.90
2023-01-29T10:55:11.987Z,79.20
2023-01-29T10:57:26.745Z,79.20
2023-01-29T10:59:59.673Z,78.20
2023-01-29T11:02:05.140Z,78.40
2023-01-29T11:04:16.547Z,77.70
2023-01-29T11:06:29.720Z,76.90
2023-01-29T11:08:41.050Z,78.10
2023-01-29T11:10:58.023Z,78.70
2023-01-29T11:15:21.010Z,76.50
2023-01-29T11:17:32.067Z,77.30
2023-01-29T11:19:46.472Z,77.30
2023-01-29T11:21:59.691Z,77.00
2023-01-29T11:24:17.402Z,78.00
2023-01-29T11:26:25.028Z,75.60
2023-01-29T11:28:42.321Z,76.30
2023-01-29T11:30:47.282Z,75.10
2023-01-29T11:33:01.321Z,76.60
2023-01-29T11:35:24.229Z,76.90
2023-01-29T11:37:37.350Z,75.60
2023-01-29T11:39:47.209Z,74.60
2023-01-29T11:41:58.503Z,76.20
2023-01-29T11:44:04.163Z,75.50
2023-01-29T11:46:16.155Z,74.60
2023-01-29T11:48:24.414Z,75.70
2023-01-29T11:50:34.783Z,73.70
2023-01-29T11:52:42.751Z,74.40
2023-01-29T11:54:53.460Z,75.00
2023-01-29T11:56:59.456Z,75.50
2023-01-29T11:59:05.945Z,74.90
2023-01-29T12:01:12.616Z,74.10
2023-01-29T12:03:25.171Z,74.40
2023-01-29T12:05:32.953Z,74.70
2023-01-29T12:07:43.683Z,75.50
2023-01-29T12:09:56.434Z,75.30
2023-01-29T12:12:29.458Z,75.00
2023-01-29T12:14:37.312Z,75.80
2023-01-29T12:16:53.113Z,75.50
2023-01-29T12:19:06.197Z,75.30
2023-01-29T12:21:20.958Z,75.90
2023-01-29T12:23:35.488Z,75.20
2023-01-29T12:25:50.873Z,75.50
2023-01-29T12:28:03.368Z,75.80
2023-01-29T12:30:18.171Z,76.90
2023-01-29T12:32:35.762Z,76.50
2023-01-29T12:34:48.561Z,75.70
2023-01-29T12:37:02.144Z,77.00
2023-01-29T12:39:07.453Z,76.80
2023-01-29T12:41:31.181Z,77.00
2023-01-29T12:43:42.917Z,76.70
2023-01-29T12:45:55.157Z,76.70
2023-01-29T12:48:04.841Z,75.60
2023-01-29T12:50:18.004Z,74.80
2023-01-29T12:52:41.181Z,75.60
2023-01-29T12:54:53.961Z,76.40
2023-01-29T12:57:05.116Z,75.70
2023-01-29T12:59:22.846Z,75.30
2023-01-29T13:01:34.595Z,74.80
2023-01-29T13:03:53.617Z,75.10
2023-01-29T13:06:03.502Z,74.40
2023-01-29T13:08:17.323Z,75.50
2023-01-29T13:10:29.197Z,74.80
2023-01-29T13:12:36.370Z,73.30
2023-01-29T13:14:50.526Z,72.40
2023-01-29T13:17:03.498Z,71.70
2023-01-29T13:19:17.285Z,71.20
2023-01-29T13:21:27.354Z,73.00
2023-01-29T13:23:40.604Z,71.20
2023-01-29T13:25:45.905Z,68.20
2023-01-29T13:27:52.026Z,69.70
2023-01-29T13:29:58.902Z,69.10
2023-01-29T13:32:06.628Z,68.50
2023-01-29T13:34:18.001Z,68.10
2023-01-29T13:36:31.772Z,63.40
2023-01-29T13:38:40.773Z,64.20
2023-01-29T13:40:52.789Z,66.80
2023-01-29T13:43:00.423Z,66.90
2023-01-29T13:45:09.511Z,65.10
2023-01-29T13:47:28.317Z,64.00
2023-01-29T13:49:41.676Z,64.90
2023-01-29T13:51:46.716Z,63.30
2023-01-29T13:54:02.706Z,63.50
2023-01-29T13:56:44.328Z,60.60
2023-01-29T13:58:57.479Z,62.70
2023-01-29T14:01:03.802Z,63.80
2023-01-29T14:04:04.547Z,63.70
2023-01-29T14:06:10.500Z,62.70
2023-01-29T14:08:48.444Z,61.20
2023-01-29T14:11:37.968Z,63.10
2023-01-29T14:13:43.484Z,63.90
2023-01-29T14:16:08.930Z,62.40
2023-01-29T14:18:23.648Z,62.80
2023-01-29T14:20:45.888Z,61.00
2023-01-29T14:22:59.895Z,62.00
2023-01-29T14:25:08.328Z,63.20
2023-01-29T14:27:25.409Z,61.00
2023-01-29T14:29:35.456Z,60.00
2023-01-29T14:31:46.505Z,60.10
2023-01-29T14:33:52.100Z,57.40
2023-01-29T14:36:00.610Z,59.50
2023-01-29T14:38:09.243Z,59.30
2023-01-29T14:40:25.881Z,59.20
2023-01-29T14:42:40.102Z,59.00
2023-01-29T14:45:12.562Z,60.80
2023-01-29T14:47:23.508Z,62.40
2023-01-29T14:49:56.891Z,62.80
2023-01-29T14:52:04.108Z,64.20
2023-01-29T14:54:30.216Z,64.90
2023-01-29T14:56:39.231Z,63.90
2023-01-29T14:58:50.868Z,65.40
2023-01-29T15:01:00.071Z,65.20
2023-01-29T15:03:13.985Z,64.50
2023-01-29T15:05:24.243Z,67.00
2023-01-29T15:07:34.816Z,65.30
2023-01-29T15:09:45.142Z,62.50
2023-01-29T15:11:59.555Z,64.90
2023-01-29T15:14:23.871Z,63.20
2023-01-29T15:16:34.096Z,65.90
2023-01-29T15:18:42.826Z,64.60
2023-01-29T15:20:48.249Z,63.50
2023-01-29T15:22:53.143Z,65.50
2023-01-29T15:25:19.315Z,64.90
2023-01-29T15:27:24.510Z,65.90
2023-01-29T15:29:32.563Z,67.60
2023-01-29T15:31:38.301Z,67.90
2023-01-29T15:33:48.199Z,68.00
2023-01-29T15:36:07.389Z,69.00
2023-01-29T15:38:21.119Z,71.10
2023-01-29T15:40:26.481Z,72.00
2023-01-29T15:42:33.105Z,73.30
2023-01-29T15:44:46.729Z,74.00
2023-01-29T15:46:55.938Z,75.60
2023-01-29T15:49:05.176Z,75.70
2023-01-29T15:51:13.045Z,76.00
2023-01-29T15:53:23.952Z,76.30
2023-01-29T15:55:30.051Z,76.90
2023-01-29T15:57:42.858Z,76.70
2023-01-29T15:59:52.949Z,76.50
2023-01-29T16:01:58.042Z,77.00
2023-01-29T16:04:04.333Z,77.40
2023-01-29T16:06:10.401Z,77.80
2023-01-29T16:08:17.893Z,77.60
2023-01-29T16:10:25.443Z,77.90
2023-01-29T16:12:31.240Z,77.90
2023-01-29T16:14:37.187Z,78.40
2023-01-29T16:16:48.589Z,78.50
2023-01-29T16:19:00.503Z,79.20
2023-01-29T16:21:13.096Z,80.20
2023-01-29T16:23:21.886Z,80.20
2023-01-29T16:25:27.963Z,80.80
2023-01-29T16:27:35.120Z,80.70
2023-01-29T16:29:40.848Z,81.00
2023-01-29T16:31:51.260Z,81.00
2023-01-29T16:33:57.136Z,81.20
2023-01-29T16:36:05.492Z,82.00
2023-01-29T16:38:30.208Z,82.30
2023-01-29T16:40:38.261Z,83.30
2023-01-29T16:42:43.981Z,83.30
2023-01-29T16:44:52.504Z,83.30
2023-01-29T16:47:08.617Z,83.40
2023-01-29T16:49:48.484Z,83.60
2023-01-29T16:51:53.348Z,83.60
2023-01-29T16:54:04.513Z,83.90
2023-01-29T16:56:11.627Z,84.00
2023-01-29T16:58:20.901Z,84.00
2023-01-29T17:00:29.416Z,83.80
2023-01-29T17:02:41.407Z,84.10
2023-01-29T17:04:48.499Z,84.00
2023-01-29T17:07:00.130Z,84.20
2023-01-29T17:09:06.797Z,85.00
2023-01-29T17:11:12.676Z,85.10
2023-01-29T17:13:26.577Z,85.20
2023-01-29T17:15:45.868Z,85.00
2023-01-29T17:17:53.378Z,85.70
2023-01-29T17:19:58.247Z,85.60
2023-01-29T17:22:05.569Z,86.30
2023-01-29T17:24:10.945Z,86.60
2023-01-29T17:26:17.183Z,86.30
2023-01-29T17:28:22.096Z,86.70
2023-01-29T17:30:30.453Z,86.70
2023-01-29T17:32:42.883Z,87.30
2023-01-29T17:34:52.735Z,87.60
2023-01-29T17:36:58.124Z,86.80
2023-01-29T17:39:03.629Z,87.40
2023-01-29T17:41:14.230Z,87.50
2023-01-29T17:43:19.130Z,87.60
2023-01-29T17:45:24.076Z,88.10
2023-01-29T17:47:28.942Z,88.30
2023-01-29T17:49:35.804Z,88.20
2023-01-29T17:51:43.339Z,87.90
2023-01-29T17:53:48.550Z,88.80
2023-01-29T17:55:54.215Z,88.50
2023-01-29T17:57:59.401Z,88.10
2023-01-29T18:00:05.244Z,88.30
2023-01-29T18:02:28.848Z,88.10
2023-01-29T18:04:36.715Z,87.60
2023-01-29T18:06:49.662Z,87.50
2023-01-29T18:08:54.537Z,87.80
2023-01-29T18:10:59.885Z,87.70
2023-01-29T18:13:04.732Z,87.80
2023-01-29T18:15:12.361Z,88.20
2023-01-29T18:17:22.276Z,88.00
2023-01-29T18:19:31.172Z,88.20
2023-01-29T18:21:36.064Z,88.80
2023-01-29T18:23:43.878Z,88.80
2023-01-29T18:25:48.946Z,89.00
2023-01-29T18:27:54.432Z,89.10
2023-01-29T18:29:59.972Z,89.30
2023-01-29T18:32:04.835Z,89.20
2023-01-29T18:34:09.875Z,89.40
2023-01-29T18:36:14.731Z,89.30
2023-01-29T18:38:20.659Z,89.00
2023-01-29T18:40:29.273Z,89.10
2023-01-29T18:42:36.059Z,89.30
2023-01-29T18:44:40.998Z,89.30
2023-01-29T18:46:45.906Z,89.30
2023-01-29T18:48:50.777Z,89.30
2023-01-29T18:50:56.450Z,89.70
2023-01-29T18:53:01.423Z,89.70
2023-01-29T18:55:06.986Z,89.60
2023-01-29T18:57:16.896Z,89.70
2023-01-29T18:59:39.288Z,89.70
2023-01-29T19:01:44.430Z,89.80
2023-01-29T19:03:49.475Z,90.10
2023-01-29T19:05:54.350Z,89.80
2023-01-29T19:07:59.220Z,90.10
2023-01-29T19:10:06.776Z,89.40
2023-01-29T19:12:15.131Z,89.50
2023-01-29T19:14:20.056Z,89.20
2023-01-29T19:16:26.195Z,88.60
2023-01-29T19:18:32.303Z,88.70
2023-01-29T19:20:37.337Z,88.40
2023-01-29T19:22:43.061Z,88.40
2023-01-29T19:24:47.935Z,88.60
2023-01-29T19:26:53.404Z,88.80
2023-01-29T19:29:00.913Z,88.50
2023-01-29T19:31:06.195Z,88.30
2023-01-29T19:33:13.010Z,88.60
2023-01-29T19:35:18.466Z,88.60
2023-01-29T19:37:23.774Z,88.40
2023-01-29T19:39:33.693Z,88.00
2023-01-29T19:41:38.569Z,88.10
2023-01-29T19:43:43.589Z,87.90
2023-01-29T19:45:51.165Z,88.40
2023-01-29T19:47:56.934Z,88.90
2023-01-29T19:50:01.827Z,88.60
2023-01-29T19:52:14.779Z,88.30
2023-01-29T19:54:20.485Z,88.80
2023-01-29T19:56:25.360Z,88.90
2023-01-29T19:58:31.011Z,89.10
2023-01-29T20:00:35.954Z,89.10
2023-01-29T20:02:43.477Z,89.00
2023-01-29T20:04:48.351Z,89.10
2023-01-29T20:06:53.217Z,89.40
2023-01-29T20:08:58.132Z,89.50
2023-01-29T20:11:04.150Z,89.30
2023-01-29T20:13:09.021Z,89.60
2023-01-29T20:15:14.328Z,89.50
2023-01-29T20:17:20.307Z,89.00
2023-01-29T20:19:27.796Z,88.80
2023-01-29T20:21:32.718Z,88.60
2023-01-29T20:23:39.004Z,88.80
2023-01-29T20:25:44.404Z,88.70
2023-01-29T20:27:49.268Z,88.30
2023-01-29T20:29:54.672Z,88.50
2023-01-29T20:32:00.379Z,88.30
2023-01-29T20:34:05.335Z,88.20
2023-01-29T20:36:15.569Z,87.80
2023-01-29T20:38:20.716Z,88.00
2023-01-29T20:40:26.076Z,87.80
2023-01-29T20:42:30.935Z,87.60
2023-01-29T20:44:35.833Z,87.70
2023-01-29T20:46:40.848Z,87.90
2023-01-29T20:48:46.096Z,87.70
2023-01-29T20:50:51.042Z,87.60
2023-01-29T20:52:58.529Z,87.80
2023-01-29T20:55:03.619Z,87.50
2023-01-29T20:57:08.634Z,87.40
2023-01-29T20:59:13.541Z,87.50
2023-01-29T21:01:24.405Z,87.90
2023-01-29T21:03:29.323Z,87.50
2023-01-29T21:05:34.187Z,87.50
2023-01-29T21:07:39.044Z,87.70
2023-01-29T21:09:46.691Z,87.70
2023-01-29T21:11:51.563Z,87.70
2023-01-29T21:13:57.829Z,87.60
2023-01-29T21:16:03.064Z,87.60
2023-01-29T21:18:09.531Z,87.40
2023-01-29T21:20:16.092Z,87.60
2023-01-29T21:22:21.202Z,87.80
2023-01-29T21:24:26.135Z,87.80
2023-01-29T21:26:33.708Z,87.90
2023-01-29T21:28:38.630Z,87.90
2023-01-29T21:30:43.632Z,88.30
2023-01-29T21:32:49.008Z,88.40
2023-01-29T21:34:54.010Z,88.40
2023-01-29T21:36:59.352Z,88.30
2023-01-29T21:39:16.488Z,88.40
2023-01-29T21:41:41.446Z,88.50
2023-01-29T21:43:46.324Z,88.50
2023-01-29T21:45:58.792Z,88.40
2023-01-29T21:48:03.700Z,88.50
2023-01-29T21:50:11.125Z,88.50
2023-01-29T21:52:17.788Z,88.50
2023-01-29T21:54:22.697Z,88.40
2023-01-29T21:56:27.661Z,88.60
2023-01-29T21:58:33.048Z,88.50
2023-01-29T22:00:40.826Z,88.40
2023-01-29T22:02:46.326Z,88.30
2023-01-29T22:05:08.762Z,88.50
2023-01-29T22:07:21.163Z,88.30
2023-01-29T22:09:26.048Z,88.40
2023-01-29T22:11:30.898Z,88.20
2023-01-29T22:13:35.808Z,88.10
2023-01-29T22:15:43.249Z,88.20
2023-01-29T22:17:48.111Z,87.80
2023-01-29T22:19:53.528Z,87.90
2023-01-29T22:21:58.743Z,88.10
2023-01-29T22:24:04.076Z,87.90
2023-01-29T22:26:10.439Z,88.10
2023-01-29T22:28:17.161Z,87.80
2023-01-29T22:30:23.515Z,88.00
2023-01-29T22:32:31.353Z,88.00
2023-01-29T22:34:36.348Z,87.80
2023-01-29T22:36:41.759Z,87.50
2023-01-29T22:38:46.694Z,87.60
2023-01-29T22:40:52.849Z,87.60
2023-01-29T22:42:57.783Z,87.90
2023-01-29T22:45:02.695Z,87.90
2023-01-29T22:47:07.633Z,87.90
2023-01-29T22:49:15.075Z,87.50
2023-01-29T22:51:20.112Z,87.80
2023-01-29T22:53:24.956Z,87.60
2023-01-29T22:55:29.822Z,88.00
2023-01-29T22:57:34.700Z,87.90
2023-01-29T22:59:39.626Z,87.70
2023-01-29T23:01:44.517Z,87.50
2023-01-29T23:03:49.939Z,87.50
2023-01-29T23:05:57.399Z,87.90
2023-01-29T23:08:02.254Z,87.30
2023-01-29T23:10:08.993Z,87.20
2023-01-29T23:12:14.983Z,87.30
2023-01-29T23:14:20.287Z,87.50
2023-01-29T23:16:28.421Z,87.50
2023-01-29T23:18:33.345Z,87.70
2023-01-29T23:20:38.593Z,87.80
2023-01-29T23:22:46.027Z,87.80
2023-01-29T23:24:50.899Z,87.10
2023-01-29T23:27:08.260Z,87.60
2023-01-29T23:29:13.241Z,87.90
2023-01-29T23:31:18.404Z,87.50
2023-01-29T23:33:23.273Z,87.30
2023-01-29T23:35:28.140Z,87.50
2023-01-29T23:37:33.016Z,87.70
2023-01-29T23:39:40.583Z,87.80
2023-01-29T23:41:45.595Z,88.10
2023-01-29T23:43:50.504Z,88.10
2023-01-29T23:45:56.085Z,88.20
2023-01-29T23:48:00.946Z,88.20
2023-01-29T23:50:05.810Z,88.30
2023-01-29T23:52:10.693Z,89.10
2023-01-29T23:54:16.402Z,89.20
2023-01-29T23:56:24.179Z,89.30
2023-01-29T23:58:31.707Z,89.60
